Time;durP1;ratioP1;P1;durP2;ratioP2;P2;SDS_P1;SDS_P2;PMS_P1;PMS_P2;Temp;Humidity;BMP_temperature;BMP_pressure;BME280_temperature;BME280_humidity;BME280_pressure;Samples;Min_cycle;Max_cycle;Signal;HPM_P1;HPM_P2
2021/12/12 00:01:38;;;;;;;42.90;24.95;;;5.60;99.90;;;;;;5104094;28;20055;-72
2021/12/12 00:04:13;;;;;;;49.88;26.35;;;5.50;99.90;;;;;;5106692;28;20042;-73
2021/12/12 00:06:52;;;;;;;44.80;22.38;;;5.60;99.90;;;;;;5103385;28;20047;-73
2021/12/12 00:09:21;;;;;;;52.20;26.08;;;5.70;99.90;;;;;;5089350;28;20399;-73
2021/12/12 00:11:47;;;;;;;54.30;25.30;;;5.10;99.90;;;;;;5103343;28;20176;-72
2021/12/12 00:14:17;;;;;;;46.60;25.08;;;5.80;99.90;;;;;;5102017;28;20131;-73
2021/12/12 00:16:45;;;;;;;50.38;25.80;;;5.80;99.90;;;;;;5103673;28;20040;-73
2021/12/12 00:19:11;;;;;;;50.05;26.13;;;5.80;99.90;;;;;;5105543;28;20402;-73
2021/12/12 00:21:40;;;;;;;57.45;28.23;;;5.70;99.90;;;;;;5106865;28;20043;-72
2021/12/12 00:24:10;;;;;;;65.28;32.30;;;5.20;99.90;;;;;;5088865;28;20475;-73
2021/12/12 00:26:36;;;;;;;42.60;24.95;;;4.70;99.90;;;;;;5102575;28;20086;-73
2021/12/12 00:29:03;;;;;;;43.20;21.52;;;5.00;99.90;;;;;;5104301;28;20043;-72
2021/12/12 00:31:29;;;;;;;45.08;22.20;;;5.10;99.90;;;;;;5086901;28;20058;-73
2021/12/12 00:33:57;;;;;;;49.95;25.23;;;4.80;99.90;;;;;;5107709;28;20035;-72
2021/12/12 00:36:25;;;;;;;49.72;25.80;;;5.90;99.90;;;;;;5110768;28;20159;-73
2021/12/12 00:38:58;;;;;;;44.72;25.65;;;5.30;99.90;;;;;;5112574;28;20036;-73
2021/12/12 00:41:33;;;;;;;51.63;26.50;;;5.70;99.90;;;;;;5110513;28;20131;-73
2021/12/12 00:44:02;;;;;;;50.45;26.95;;;4.80;99.90;;;;;;5108452;28;20051;-73
2021/12/12 00:46:28;;;;;;;43.38;25.77;;;4.70;99.90;;;;;;5091585;28;20055;-72
2021/12/12 00:48:55;;;;;;;46.90;23.30;;;5.70;99.90;;;;;;5106663;28;20047;-73
2021/12/12 00:51:29;;;;;;;45.67;24.17;;;4.70;99.90;;;;;;5109474;28;20051;-73
2021/12/12 00:53:56;;;;;;;44.65;25.77;;;5.60;99.90;;;;;;5108458;28;20035;-73
2021/12/12 00:56:22;;;;;;;39.72;23.35;;;5.50;99.90;;;;;;5110231;28;20043;-72
2021/12/12 00:58:48;;;;;;;45.65;25.27;;;5.20;99.90;;;;;;5108879;28;20031;-73
2021/12/12 01:01:20;;;;;;;47.33;27.60;;;5.40;99.90;;;;;;5105911;28;20427;-73
2021/12/12 01:03:57;;;;;;;43.58;22.52;;;4.70;99.90;;;;;;5099990;28;20067;-73
2021/12/12 01:06:24;;;;;;;42.65;23.83;;;4.90;99.90;;;;;;5107356;28;20036;-73
2021/12/12 01:08:51;;;;;;;28.00;17.95;;;6.00;99.90;;;;;;5089406;28;20510;-74
2021/12/12 01:11:19;;;;;;;41.58;25.05;;;5.50;99.90;;;;;;5108187;28;20051;-73
2021/12/12 01:13:46;;;;;;;45.20;24.35;;;5.30;99.90;;;;;;5108174;28;20028;-72
2021/12/12 01:16:45;;;;;;;43.13;24.15;;;5.60;99.90;;;;;;5105385;28;20400;-72
2021/12/12 01:19:16;;;;;;;51.25;26.92;;;5.60;99.90;;;;;;5109153;28;20050;-73
2021/12/12 01:21:46;;;;;;;48.38;25.25;;;5.60;99.90;;;;;;5109492;28;20140;-73
2021/12/12 01:24:26;;;;;;;45.15;24.55;;;5.60;99.90;;;;;;5107447;28;20073;-72
2021/12/12 01:26:55;;;;;;;46.30;26.52;;;5.60;99.90;;;;;;5108985;28;20103;-72
2021/12/12 01:29:21;;;;;;;34.28;19.52;;;5.60;99.90;;;;;;5108493;28;20051;-72
2021/12/12 01:31:48;;;;;;;55.70;31.23;;;5.20;99.90;;;;;;5103567;28;20399;-73
2021/12/12 01:34:27;;;;;;;47.20;23.98;;;5.60;99.90;;;;;;5103331;28;20411;-73
2021/12/12 01:38:50;;;;;;;57.15;30.27;;;5.60;99.90;;;;;;5098659;28;20053;-72
2021/12/12 01:40:19;;;;;;;44.92;25.80;;;5.60;99.90;;;;;;5092590;28;20052;-72
2021/12/12 01:42:53;;;;;;;51.15;27.85;;;5.60;99.90;;;;;;5107282;28;20048;-72
2021/12/12 01:45:42;;;;;;;47.07;26.73;;;5.60;99.90;;;;;;5103850;28;20047;-73
2021/12/12 01:48:20;;;;;;;59.28;31.40;;;5.70;99.90;;;;;;5105139;28;20031;-72
2021/12/12 01:50:54;;;;;;;50.28;28.55;;;4.70;99.90;;;;;;5110581;28;20079;-72
2021/12/12 01:53:24;;;;;;;49.08;27.58;;;5.00;99.90;;;;;;5109929;28;20052;-72
2021/12/12 01:55:58;;;;;;;48.40;24.90;;;5.60;99.90;;;;;;5103822;28;20058;-73
2021/12/12 01:58:27;;;;;;;40.05;22.10;;;5.60;99.90;;;;;;5103174;28;20444;-72
2021/12/12 02:01:01;;;;;;;43.10;23.10;;;5.70;99.90;;;;;;5097701;28;20032;-73
2021/12/12 02:03:32;;;;;;;48.05;25.85;;;4.70;99.90;;;;;;5107169;28;20055;-72
2021/12/12 02:05:59;;;;;;;51.20;25.52;;;4.70;99.90;;;;;;5101899;28;20044;-72
2021/12/12 02:08:27;;;;;;;40.22;20.92;;;4.70;99.90;;;;;;5109202;28;20118;-72
2021/12/12 02:10:58;;;;;;;47.65;24.55;;;5.70;99.90;;;;;;5107216;28;20042;-73
2021/12/12 02:13:26;;;;;;;45.25;25.95;;;5.00;99.90;;;;;;5108634;28;20031;-72
2021/12/12 02:15:57;;;;;;;36.78;20.50;;;5.10;99.90;;;;;;5076410;28;20036;-73
2021/12/12 02:18:28;;;;;;;37.95;21.10;;;5.80;99.90;;;;;;5108713;28;20036;-73
2021/12/12 02:21:08;;;;;;;39.15;22.63;;;4.80;99.90;;;;;;5107190;28;20047;-73
2021/12/12 02:24:17;;;;;;;41.97;23.10;;;4.70;99.90;;;;;;5106639;28;20126;-73
2021/12/12 02:35:20;;;;;;;51.03;23.73;;;5.20;99.90;;;;;;5107878;28;20055;-73
2021/12/12 02:37:48;;;;;;;40.72;23.65;;;6.40;99.90;;;;;;5108247;28;20044;-73
2021/12/12 02:40:28;;;;;;;44.70;25.90;;;5.90;99.90;;;;;;5112000;28;20040;-73
2021/12/12 02:42:55;;;;;;;41.90;23.85;;;6.00;99.90;;;;;;5110891;28;20040;-73
2021/12/12 02:45:22;;;;;;;35.05;19.98;;;6.00;99.90;;;;;;5111459;28;20398;-73
2021/12/12 02:47:59;;;;;;;43.55;24.20;;;4.80;99.90;;;;;;5111684;28;20047;-73
2021/12/12 02:50:33;;;;;;;42.35;24.55;;;5.80;99.90;;;;;;5110627;28;20114;-73
2021/12/12 02:53:05;;;;;;;47.03;25.77;;;4.70;99.90;;;;;;5110700;28;20051;-74
2021/12/12 02:55:35;;;;;;;46.92;26.75;;;4.70;99.90;;;;;;5111533;28;20043;-74
2021/12/12 02:58:02;;;;;;;44.22;23.48;;;5.70;99.90;;;;;;5111162;28;20050;-73
2021/12/12 03:00:33;;;;;;;35.65;18.13;;;5.80;99.90;;;;;;5109745;28;20099;-73
2021/12/12 03:03:00;;;;;;;40.60;23.00;;;4.90;99.90;;;;;;5111763;28;20060;-75
2021/12/12 03:05:36;;;;;;;42.05;25.02;;;4.90;99.90;;;;;;5111177;28;20398;-74
2021/12/12 03:08:02;;;;;;;47.70;25.60;;;4.80;99.90;;;;;;5111353;28;20444;-73
2021/12/12 03:10:34;;;;;;;49.63;27.48;;;4.80;99.90;;;;;;5111439;28;20499;-73
2021/12/12 03:12:59;;;;;;;42.00;23.77;;;6.10;99.90;;;;;;5109298;28;20511;-74
2021/12/12 03:15:31;;;;;;;42.78;23.08;;;4.90;99.90;;;;;;5101088;28;20143;-73
2021/12/12 03:17:59;;;;;;;49.70;27.17;;;6.20;99.90;;;;;;5113157;28;20490;-73
2021/12/12 03:20:31;;;;;;;48.90;24.92;;;4.80;99.90;;;;;;5109028;28;20051;-73
2021/12/12 03:23:08;;;;;;;48.90;26.13;;;5.70;99.90;;;;;;5111577;28;20040;-73
2021/12/12 03:25:38;;;;;;;48.60;25.42;;;5.10;99.90;;;;;;5107820;28;20050;-73
2021/12/12 03:28:07;;;;;;;48.28;23.88;;;5.00;99.90;;;;;;5109679;28;20062;-73
2021/12/12 03:30:37;;;;;;;43.40;24.15;;;6.30;99.90;;;;;;5107914;28;20039;-73
2021/12/12 03:33:04;;;;;;;45.17;20.58;;;5.30;99.90;;;;;;5105335;28;20379;-72
2021/12/12 03:35:31;;;;;;;50.60;27.83;;;6.00;99.90;;;;;;5105568;28;20036;-72
2021/12/12 03:37:57;;;;;;;38.58;21.60;;;6.20;99.90;;;;;;5108759;28;20044;-73
2021/12/12 03:40:28;;;;;;;34.45;16.55;;;5.30;99.90;;;;;;5109204;28;20428;-73
2021/12/12 03:42:57;;;;;;;35.88;19.50;;;5.70;99.90;;;;;;5105115;28;20049;-73
2021/12/12 03:45:23;;;;;;;42.35;24.95;;;5.60;99.90;;;;;;5105138;28;20055;-73
2021/12/12 03:48:02;;;;;;;22.08;13.73;;;6.10;99.90;;;;;;5076569;28;20055;-73
2021/12/12 03:50:33;;;;;;;28.17;15.93;;;5.70;99.90;;;;;;5103051;28;20039;-73
2021/12/12 03:52:59;;;;;;;35.13;19.77;;;6.50;99.90;;;;;;5107068;28;20059;-74
2021/12/12 03:55:28;;;;;;;42.72;21.40;;;6.80;99.90;;;;;;5109785;28;20139;-73
2021/12/12 03:57:55;;;;;;;33.80;21.17;;;6.50;99.90;;;;;;5110229;28;20039;-74
2021/12/12 04:00:32;;;;;;;36.35;19.98;;;6.40;99.90;;;;;;5108511;28;20027;-73
2021/12/12 04:02:59;;;;;;;37.35;19.95;;;5.40;99.90;;;;;;5106011;28;20488;-73
2021/12/12 04:05:25;;;;;;;20.77;11.27;;;6.60;99.90;;;;;;5109254;28;20070;-73
2021/12/12 04:07:51;;;;;;;35.72;18.60;;;6.60;99.90;;;;;;5111418;28;20043;-74
2021/12/12 04:10:20;;;;;;;31.77;16.63;;;6.70;99.90;;;;;;5092024;28;20421;-74
2021/12/12 04:12:48;;;;;;;31.13;18.00;;;6.50;99.90;;;;;;5109177;28;20098;-73
2021/12/12 04:15:15;;;;;;;27.35;15.27;;;6.00;99.90;;;;;;5107819;28;20034;-73
2021/12/12 04:17:43;;;;;;;37.65;19.90;;;6.60;99.90;;;;;;5109793;28;20078;-73
2021/12/12 04:20:17;;;;;;;28.00;16.70;;;5.50;99.90;;;;;;5107272;28;20118;-73
2021/12/12 04:22:43;;;;;;;28.77;15.73;;;5.80;99.90;;;;;;5110963;28;20059;-73
2021/12/12 04:25:10;;;;;;;27.33;15.00;;;6.80;99.90;;;;;;5105193;28;20482;-73
2021/12/12 04:27:36;;;;;;;33.75;17.95;;;7.10;99.90;;;;;;5108033;28;20051;-73
2021/12/12 04:30:05;;;;;;;24.80;15.48;;;7.00;99.90;;;;;;5102826;28;20070;-73
2021/12/12 04:32:31;;;;;;;25.02;15.60;;;5.70;99.90;;;;;;5109984;28;20086;-73
2021/12/12 04:35:25;;;;;;;23.70;14.18;;;5.80;99.90;;;;;;5106779;28;20081;-73
2021/12/12 04:37:51;;;;;;;28.95;18.05;;;6.30;99.90;;;;;;5094068;28;20116;-73
2021/12/12 04:40:19;;;;;;;26.73;15.90;;;5.80;99.90;;;;;;5107114;28;20044;-73
2021/12/12 04:42:48;;;;;;;29.02;16.90;;;7.00;99.90;;;;;;5109457;28;20043;-73
2021/12/12 04:46:03;;;;;;;28.20;15.95;;;5.80;99.90;;;;;;5107154;28;20036;-73
2021/12/12 04:51:46;;;;;;;27.90;14.77;;;7.20;99.90;;;;;;5107350;28;20063;-73
2021/12/12 04:54:24;;;;;;;20.73;13.55;;;5.60;99.90;;;;;;5109533;28;20047;-73
2021/12/12 04:57:08;;;;;;;25.23;13.55;;;6.00;99.90;;;;;;5106753;28;20036;-73
2021/12/12 04:59:54;;;;;;;19.27;10.83;;;6.80;99.90;;;;;;5108771;28;20039;-73
2021/12/12 05:02:25;;;;;;;22.00;13.40;;;7.20;99.90;;;;;;5103211;28;20071;-73
2021/12/12 05:05:29;;;;;;;24.30;13.93;;;6.40;99.90;;;;;;5102899;28;20059;-73
2021/12/12 05:08:07;;;;;;;29.92;17.42;;;6.80;99.90;;;;;;5081227;28;20062;-74
2021/12/12 05:10:50;;;;;;;25.25;13.88;;;5.80;99.90;;;;;;5109901;28;20445;-74
2021/12/12 05:13:31;;;;;;;21.95;12.98;;;7.00;99.90;;;;;;5103886;28;20044;-74
2021/12/12 05:16:12;;;;;;;25.40;16.20;;;6.00;99.90;;;;;;5108420;28;20043;-73
2021/12/12 05:18:47;;;;;;;24.85;14.30;;;6.90;99.90;;;;;;5091963;28;20044;-74
2021/12/12 05:21:15;;;;;;;19.38;12.70;;;5.70;99.90;;;;;;5109648;28;20502;-73
2021/12/12 05:23:45;;;;;;;22.63;13.88;;;6.90;99.90;;;;;;5085921;28;20077;-75
2021/12/12 05:26:17;;;;;;;14.27;10.10;;;6.00;99.90;;;;;;5106755;28;20096;-74
2021/12/12 05:28:48;;;;;;;19.77;13.38;;;5.80;99.90;;;;;;5105792;28;20130;-75
2021/12/12 05:31:16;;;;;;;19.48;13.38;;;5.80;99.90;;;;;;5107847;28;20044;-75
2021/12/12 05:33:42;;;;;;;17.23;11.23;;;7.00;99.90;;;;;;5090533;28;20380;-74
2021/12/12 05:36:10;;;;;;;22.75;13.38;;;6.90;99.90;;;;;;5103800;28;20044;-75
2021/12/12 05:38:38;;;;;;;21.50;14.20;;;6.50;99.90;;;;;;5108775;28;20067;-75
2021/12/12 05:41:04;;;;;;;24.15;14.57;;;6.30;99.90;;;;;;5110157;28;20175;-75
2021/12/12 05:43:30;;;;;;;23.52;14.43;;;6.60;99.90;;;;;;5107334;28;20036;-74
2021/12/12 05:45:57;;;;;;;20.35;13.25;;;5.90;99.90;;;;;;5101910;28;20456;-75
2021/12/12 05:48:23;;;;;;;19.67;11.65;;;6.40;99.90;;;;;;5099886;28;20076;-74
2021/12/12 05:50:51;;;;;;;24.15;14.95;;;6.60;99.90;;;;;;5109900;28;20479;-74
2021/12/12 05:53:17;;;;;;;21.27;12.60;;;6.00;99.90;;;;;;5109553;28;20074;-74
2021/12/12 05:55:46;;;;;;;22.30;14.02;;;6.10;99.90;;;;;;5090606;28;20047;-74
2021/12/12 05:58:15;;;;;;;20.23;13.45;;;5.80;99.90;;;;;;5108632;28;20066;-74
2021/12/12 06:00:45;;;;;;;26.30;15.68;;;7.20;99.90;;;;;;5106345;28;20476;-74
2021/12/12 06:03:13;;;;;;;19.95;13.18;;;6.80;99.90;;;;;;5091828;28;20046;-75
2021/12/12 06:05:40;;;;;;;19.92;13.27;;;5.90;99.90;;;;;;5107285;28;20092;-74
2021/12/12 06:08:07;;;;;;;23.02;13.93;;;7.20;99.90;;;;;;5109336;28;20035;-74
2021/12/12 06:10:35;;;;;;;23.67;14.15;;;6.40;99.90;;;;;;5108030;28;20115;-74
2021/12/12 06:13:03;;;;;;;18.17;11.70;;;6.00;99.90;;;;;;5091990;28;20092;-74
2021/12/12 06:15:30;;;;;;;21.67;13.27;;;7.30;99.90;;;;;;5112168;28;20031;-73
2021/12/12 06:17:57;;;;;;;23.27;13.52;;;7.10;99.90;;;;;;5111516;28;20044;-74
2021/12/12 06:20:23;;;;;;;28.55;17.27;;;6.10;99.90;;;;;;5113048;28;20379;-74
2021/12/12 06:22:50;;;;;;;23.02;13.25;;;6.10;99.90;;;;;;5111810;28;20078;-75
2021/12/12 06:25:16;;;;;;;25.20;15.95;;;7.40;99.90;;;;;;5108188;28;20051;-74
2021/12/12 06:27:43;;;;;;;24.40;14.48;;;7.40;99.90;;;;;;5094553;28;20036;-74
2021/12/12 06:30:15;;;;;;;19.52;12.48;;;6.00;99.90;;;;;;5093385;28;20047;-74
2021/12/12 06:32:43;;;;;;;22.58;14.27;;;6.70;99.90;;;;;;5111874;28;20051;-73
2021/12/12 06:35:10;;;;;;;26.02;15.30;;;6.90;99.90;;;;;;5095113;28;20031;-73
2021/12/12 06:37:37;;;;;;;23.98;14.77;;;7.50;99.90;;;;;;5110572;28;20507;-73
2021/12/12 06:40:08;;;;;;;24.17;13.40;;;6.30;99.90;;;;;;5075170;28;20039;-72
2021/12/12 06:42:34;;;;;;;20.63;12.88;;;7.40;99.90;;;;;;5110575;28;20111;-73
2021/12/12 06:44:59;;;;;;;24.52;14.05;;;6.40;99.90;;;;;;5112712;28;20052;-73
2021/12/12 06:47:26;;;;;;;23.83;12.73;;;6.40;99.90;;;;;;5109146;28;20071;-73
2021/12/12 06:49:52;;;;;;;21.15;11.55;;;6.30;99.90;;;;;;5101692;28;20500;-73
2021/12/12 06:52:19;;;;;;;21.17;11.93;;;7.70;99.90;;;;;;5110001;28;20085;-73
2021/12/12 06:54:46;;;;;;;21.35;12.57;;;7.70;99.90;;;;;;5108842;27;20063;-73
2021/12/12 06:57:14;;;;;;;22.95;12.15;;;7.10;99.90;;;;;;5112890;28;20058;-72
2021/12/12 06:59:42;;;;;;;18.00;10.23;;;7.80;99.90;;;;;;5106694;28;20044;-74
2021/12/12 07:02:09;;;;;;;19.58;11.82;;;7.80;99.90;;;;;;5106020;28;20440;-71
2021/12/12 07:04:38;;;;;;;21.77;13.35;;;6.70;99.90;;;;;;5104956;28;20126;-71
2021/12/12 07:07:07;;;;;;;19.77;11.80;;;6.80;99.90;;;;;;5110978;28;20415;-73
2021/12/12 07:09:35;;;;;;;23.75;13.55;;;6.30;99.90;;;;;;5086799;28;20074;-74
2021/12/12 07:12:05;;;;;;;22.83;13.05;;;7.70;99.90;;;;;;5111341;28;20043;-74
2021/12/12 07:14:31;;;;;;;21.45;13.77;;;6.40;99.90;;;;;;5107432;28;20031;-74
2021/12/12 07:16:58;;;;;;;20.70;12.82;;;6.60;99.90;;;;;;5112621;28;20383;-74
2021/12/12 07:19:24;;;;;;;22.48;13.77;;;6.80;99.90;;;;;;5108937;28;20032;-74
2021/12/12 07:21:50;;;;;;;27.52;15.18;;;7.90;99.90;;;;;;5093255;28;20070;-74
2021/12/12 07:24:18;;;;;;;19.77;11.90;;;6.50;99.90;;;;;;5111289;28;20410;-75
2021/12/12 07:26:44;;;;;;;24.02;13.98;;;6.60;99.90;;;;;;5112621;28;20066;-74
2021/12/12 07:29:10;;;;;;;21.33;12.45;;;6.30;99.90;;;;;;5110669;28;20055;-74
2021/12/12 07:31:38;;;;;;;24.45;13.85;;;7.10;99.90;;;;;;5095614;28;20120;-73
2021/12/12 07:34:08;;;;;;;21.88;12.32;;;8.00;99.90;;;;;;5110837;28;20071;-73
2021/12/12 07:36:36;;;;;;;18.50;12.48;;;7.70;99.90;;;;;;5110868;27;20057;-74
2021/12/12 07:39:09;;;;;;;25.27;14.52;;;7.00;99.90;;;;;;5108228;28;20761;-74
2021/12/12 07:41:36;;;;;;;25.17;14.55;;;8.30;99.90;;;;;;5110593;28;20490;-74
2021/12/12 07:44:07;;;;;;;24.13;13.38;;;7.70;99.90;;;;;;5104945;28;20049;-74
2021/12/12 07:46:34;;;;;;;28.13;15.88;;;7.80;99.90;;;;;;5103345;28;20039;-73
2021/12/12 07:49:01;;;;;;;23.27;13.73;;;8.10;99.90;;;;;;5112529;27;20112;-74
2021/12/12 07:51:27;;;;;;;24.65;14.15;;;6.50;99.90;;;;;;5107997;27;20047;-73
2021/12/12 07:53:57;;;;;;;27.48;14.27;;;6.60;99.90;;;;;;5115687;27;20083;-74
2021/12/12 07:56:29;;;;;;;24.95;14.60;;;7.80;99.90;;;;;;5108386;28;20059;-73
2021/12/12 07:58:57;;;;;;;25.55;13.95;;;7.00;99.90;;;;;;5110381;28;20042;-73
2021/12/12 08:01:24;;;;;;;27.98;15.48;;;8.30;99.90;;;;;;5107862;28;20093;-74
2021/12/12 08:03:52;;;;;;;22.77;13.05;;;7.80;99.90;;;;;;5109788;28;20047;-74
2021/12/12 08:06:18;;;;;;;25.88;13.63;;;7.10;99.90;;;;;;5107056;28;20044;-73
2021/12/12 08:08:45;;;;;;;28.25;13.48;;;7.50;99.90;;;;;;5093060;28;20048;-74
2021/12/12 08:11:20;;;;;;;29.15;14.52;;;8.10;99.90;;;;;;5092075;28;20079;-74
2021/12/12 08:13:46;;;;;;;31.67;15.65;;;7.20;99.90;;;;;;5093762;28;20036;-74
2021/12/12 08:16:14;;;;;;;30.73;15.15;;;7.70;99.90;;;;;;5108907;28;20057;-75
2021/12/12 08:18:41;;;;;;;27.83;14.05;;;8.00;99.90;;;;;;5093066;28;20479;-74
2021/12/12 08:21:08;;;;;;;24.35;13.45;;;8.00;99.90;;;;;;5088688;28;20031;-74
2021/12/12 08:23:35;;;;;;;29.90;13.77;;;8.20;99.90;;;;;;5109533;28;20763;-74
2021/12/12 08:26:02;;;;;;;23.55;13.13;;;8.40;99.90;;;;;;5092850;28;20129;-73
2021/12/12 08:28:30;;;;;;;28.80;14.82;;;8.50;99.90;;;;;;5107686;28;20469;-75
2021/12/12 08:30:56;;;;;;;27.35;13.45;;;8.10;99.90;;;;;;5108249;28;20109;-73
2021/12/12 08:33:23;;;;;;;27.42;15.07;;;7.90;99.90;;;;;;5109181;28;20035;-74
2021/12/12 08:35:50;;;;;;;26.00;13.27;;;7.10;99.90;;;;;;5109025;28;20043;-73
2021/12/12 08:38:17;;;;;;;36.55;16.27;;;7.80;99.90;;;;;;5075033;28;20032;-75
2021/12/12 08:40:49;;;;;;;33.65;17.48;;;7.80;99.90;;;;;;5108570;28;20087;-75
2021/12/12 08:43:19;;;;;;;30.75;15.35;;;8.40;99.90;;;;;;5109027;28;20091;-76
2021/12/12 08:45:54;;;;;;;26.58;14.70;;;7.60;99.90;;;;;;5109644;28;20402;-75
2021/12/12 08:48:23;;;;;;;27.13;13.60;;;8.60;99.90;;;;;;5105739;28;20040;-75
2021/12/12 08:50:52;;;;;;;34.83;15.27;;;8.50;99.90;;;;;;5105439;28;20577;-75
2021/12/12 08:53:18;;;;;;;29.77;14.95;;;8.80;99.90;;;;;;5104922;28;20051;-74
2021/12/12 08:55:49;;;;;;;24.35;13.23;;;7.20;99.90;;;;;;5103380;28;20069;-73
2021/12/12 08:58:19;;;;;;;26.77;13.82;;;7.20;99.90;;;;;;5104539;28;20498;-73
2021/12/12 09:00:50;;;;;;;26.63;13.98;;;8.10;99.90;;;;;;5104920;28;20051;-73
2021/12/12 09:03:21;;;;;;;33.20;15.73;;;8.50;99.90;;;;;;5092265;28;20409;-73
2021/12/12 09:05:47;;;;;;;38.00;17.30;;;8.60;99.90;;;;;;5090538;28;20058;-73
2021/12/12 09:08:29;;;;;;;31.02;15.27;;;8.60;99.90;;;;;;5108219;28;20046;-74
2021/12/12 09:11:16;;;;;;;33.85;15.32;;;7.50;99.90;;;;;;5095601;27;20055;-73
2021/12/12 09:14:26;;;;;;;33.53;15.25;;;8.30;99.90;;;;;;5105376;28;20065;-73
2021/12/12 09:17:18;;;;;;;34.33;15.45;;;8.90;99.90;;;;;;5081045;28;20048;-73
2021/12/12 09:19:54;;;;;;;41.13;17.75;;;7.70;99.90;;;;;;5108402;28;20131;-75
2021/12/12 09:22:32;;;;;;;38.22;16.85;;;9.20;99.90;;;;;;5106332;28;20047;-73
2021/12/12 09:25:06;;;;;;;44.65;19.15;;;8.90;99.90;;;;;;5109267;28;20444;-73
2021/12/12 09:27:38;;;;;;;46.38;18.17;;;8.60;99.90;;;;;;5106880;28;20369;-73
2021/12/12 09:30:14;;;;;;;35.10;16.35;;;9.20;99.90;;;;;;5108537;28;20059;-73
2021/12/12 09:32:56;;;;;;;35.25;16.45;;;8.10;99.90;;;;;;5081931;28;20399;-73
2021/12/12 09:35:32;;;;;;;43.35;17.80;;;7.80;99.90;;;;;;5106217;28;20055;-73
2021/12/12 09:38:15;;;;;;;46.40;17.63;;;8.10;99.90;;;;;;5104883;28;20480;-73
2021/12/12 09:41:14;;;;;;;45.13;17.38;;;7.80;99.90;;;;;;5108058;28;20514;-74
2021/12/12 09:43:58;;;;;;;47.13;17.73;;;8.70;99.90;;;;;;5083991;28;20658;-73
2021/12/12 09:46:38;;;;;;;44.10;17.08;;;8.50;99.90;;;;;;5110173;28;20039;-76
2021/12/12 09:52:52;;;;;;;41.95;18.00;;;7.90;99.90;;;;;;5083163;28;20063;-74
2021/12/12 09:55:26;;;;;;;53.80;18.80;;;9.30;99.90;;;;;;5052820;28;20093;-74
2021/12/12 09:58:00;;;;;;;48.05;17.90;;;8.40;99.90;;;;;;5094317;28;20051;-73
2021/12/12 10:00:40;;;;;;;58.17;19.45;;;8.90;99.90;;;;;;5093858;28;20451;-75
2021/12/12 10:03:18;;;;;;;62.22;20.27;;;8.40;99.90;;;;;;5087179;28;20131;-74
2021/12/12 10:06:07;;;;;;;61.90;20.02;;;8.40;99.90;;;;;;5095406;28;20605;-74
2021/12/12 10:08:58;;;;;;;66.70;21.65;;;8.40;99.90;;;;;;5100331;28;20706;-73
2021/12/12 10:11:32;;;;;;;68.07;20.55;;;8.00;99.90;;;;;;5101000;28;20126;-73
2021/12/12 10:14:13;;;;;;;63.90;22.47;;;8.70;99.90;;;;;;5083631;28;20048;-74
2021/12/12 10:16:47;;;;;;;67.25;21.88;;;9.60;99.90;;;;;;5096456;28;20036;-73
2021/12/12 10:19:35;;;;;;;72.57;24.45;;;9.80;99.90;;;;;;5100580;28;20169;-74
2021/12/12 10:22:38;;;;;;;66.47;21.77;;;8.60;99.90;;;;;;5100608;28;20048;-73
2021/12/12 10:25:18;;;;;;;79.45;24.00;;;9.30;99.90;;;;;;5084078;28;20653;-74
2021/12/12 10:28:19;;;;;;;98.80;28.20;;;9.50;99.90;;;;;;5097100;28;20185;-74
2021/12/12 10:30:49;;;;;;;94.57;30.60;;;9.60;99.90;;;;;;5068967;28;20402;-73
2021/12/12 10:33:20;;;;;;;82.05;32.35;;;9.80;99.90;;;;;;5100682;28;20047;-74
2021/12/12 10:36:05;;;;;;;79.72;29.67;;;8.40;99.90;;;;;;5089276;28;20051;-74
2021/12/12 10:39:02;;;;;;;69.53;26.47;;;9.70;99.90;;;;;;5095631;28;20395;-73
2021/12/12 10:41:35;;;;;;;69.10;24.35;;;8.50;99.90;;;;;;5081188;28;20294;-73
2021/12/12 10:44:03;;;;;;;71.95;25.33;;;8.40;99.90;;;;;;5082602;28;20387;-74
2021/12/12 10:46:38;;;;;;;80.35;28.77;;;8.70;99.90;;;;;;5100885;28;20557;-74
2021/12/12 10:49:19;;;;;;;;;;;8.60;99.90;;;;;;5102408;28;20052;-73
2021/12/12 10:51:50;;;;;;;78.47;25.20;;;10.20;99.90;;;;;;5099353;28;19927;-74
2021/12/12 10:54:38;;;;;;;92.97;28.30;;;8.70;99.90;;;;;;5083834;28;20043;-73
2021/12/12 10:57:15;;;;;;;68.65;25.30;;;8.90;99.90;;;;;;5089443;28;20090;-74
2021/12/12 11:00:05;;;;;;;77.65;24.48;;;10.30;99.90;;;;;;5100543;28;20371;-73
2021/12/12 11:02:36;;;;;;;72.88;28.08;;;8.80;99.90;;;;;;5084501;28;20802;-73
2021/12/12 11:05:11;;;;;;;83.93;27.40;;;10.20;99.90;;;;;;5096093;28;20044;-73
2021/12/12 11:07:43;;;;;;;78.55;25.67;;;9.80;99.90;;;;;;5102103;28;20054;-73
2021/12/12 11:10:18;;;;;;;75.13;24.05;;;10.30;99.90;;;;;;5101570;28;20387;-74
2021/12/12 11:12:51;;;;;;;92.65;27.27;;;9.30;99.90;;;;;;5102025;28;20110;-72
2021/12/12 11:15:24;;;;;;;63.10;22.83;;;9.90;99.90;;;;;;5101938;28;20075;-74
2021/12/12 11:18:14;;;;;;;75.43;24.08;;;10.60;99.90;;;;;;5101057;28;20072;-74
2021/12/12 11:20:52;;;;;;;65.20;23.25;;;9.40;99.90;;;;;;5086754;28;20031;-73
2021/12/12 11:23:28;;;;;;;78.25;25.08;;;9.50;99.90;;;;;;5101931;28;20051;-73
2021/12/12 11:26:03;;;;;;;66.25;22.30;;;10.60;99.90;;;;;;5101049;28;20104;-72
2021/12/12 11:28:40;;;;;;;;;;;10.70;99.90;;;;;;5098857;28;20043;-76
2021/12/12 11:31:12;;;;;;;81.38;25.05;;;10.60;99.90;;;;;;5103119;28;20006;-74
2021/12/12 11:33:45;;;;;;;64.35;21.92;;;9.40;99.90;;;;;;5101584;28;20645;-74
2021/12/12 11:36:14;;;;;;;71.05;23.40;;;10.00;99.90;;;;;;5103543;28;20048;-73
2021/12/12 11:38:56;;;;;;;60.83;23.45;;;10.00;99.90;;;;;;5101506;28;20050;-73
2021/12/12 11:41:59;;;;;;;58.67;20.50;;;10.90;99.90;;;;;;5101630;28;20043;-73
2021/12/12 11:44:30;;;;;;;62.67;21.45;;;11.00;99.90;;;;;;5101659;28;20604;-73
2021/12/12 11:47:35;;;;;;;60.35;23.00;;;10.80;99.90;;;;;;5102855;28;20429;-74
2021/12/12 11:50:15;;;;;;;52.63;18.50;;;10.80;99.90;;;;;;5101218;28;20053;-75
2021/12/12 11:52:50;;;;;;;55.63;19.10;;;10.00;99.90;;;;;;5084278;28;20448;-73
2021/12/12 11:55:29;;;;;;;47.92;18.55;;;11.00;99.90;;;;;;5102930;28;20070;-72
2021/12/12 11:58:03;;;;;;;51.97;17.98;;;9.90;99.90;;;;;;5086413;28;20130;-73
2021/12/12 12:00:34;;;;;;;53.17;19.52;;;10.40;99.90;;;;;;5103761;28;20039;-72
2021/12/12 12:03:27;;;;;;;50.28;17.10;;;11.30;99.90;;;;;;5102462;28;20055;-72
2021/12/12 12:06:11;;;;;;;50.20;18.50;;;10.80;99.90;;;;;;5102774;28;21172;-72
2021/12/12 12:09:23;;;;;;;56.22;24.42;;;11.10;99.90;;;;;;5102873;28;20082;-73
2021/12/12 12:12:23;;;;;;;51.88;21.17;;;9.50;99.90;;;;;;5082395;28;20055;-73
2021/12/12 12:15:09;;;;;;;53.45;20.13;;;10.10;99.90;;;;;;5102413;28;20046;-73
2021/12/12 12:17:57;;;;;;;45.25;18.65;;;9.80;99.90;;;;;;5085530;28;20031;-73
2021/12/12 12:20:44;;;;;;;68.28;23.85;;;11.50;99.90;;;;;;5094461;28;20044;-73
2021/12/12 12:26:55;;;;;;;43.13;19.02;;;9.80;99.90;;;;;;5119253;27;20065;-74
2021/12/12 12:29:21;;;;;;;45.10;19.58;;;11.50;99.90;;;;;;5103516;28;20152;-74
2021/12/12 12:32:25;;;;;;;37.00;15.65;;;10.40;99.90;;;;;;5091032;28;20512;-74
2021/12/12 12:35:24;;;;;;;41.42;18.20;;;9.50;99.90;;;;;;5099799;28;20032;-74
2021/12/12 12:38:27;;;;;;;42.75;16.50;;;9.80;99.90;;;;;;5080231;28;20043;-73
2021/12/12 12:41:50;;;;;;;36.65;15.48;;;9.50;99.90;;;;;;5064943;28;20044;-73
2021/12/12 12:44:47;;;;;;;41.55;16.95;;;10.10;99.90;;;;;;5081535;28;20093;-73
2021/12/12 12:47:40;;;;;;;39.63;18.15;;;9.90;99.90;;;;;;5097005;28;20043;-74
2021/12/12 12:50:38;;;;;;;45.28;22.38;;;9.70;99.90;;;;;;5099216;28;20051;-74
2021/12/12 12:53:07;;;;;;;39.47;19.67;;;11.60;99.90;;;;;;5081569;28;20067;-73
2021/12/12 12:56:08;;;;;;;48.05;22.65;;;11.50;99.90;;;;;;5083415;28;20039;-74
2021/12/12 12:59:12;;;;;;;42.75;18.67;;;9.90;99.90;;;;;;5101022;28;20043;-73
2021/12/12 13:01:49;;;;;;;42.85;17.27;;;11.20;99.90;;;;;;5091028;28;20044;-74
2021/12/12 13:04:32;;;;;;;38.42;17.00;;;11.00;99.90;;;;;;5091172;28;20160;-73
2021/12/12 13:07:19;;;;;;;37.35;17.80;;;10.90;99.90;;;;;;5099708;28;20051;-73
2021/12/12 13:10:24;;;;;;;44.03;21.85;;;11.60;99.90;;;;;;5098643;28;20542;-74
2021/12/12 13:13:11;;;;;;;40.92;21.80;;;11.60;99.90;;;;;;5039895;28;20044;-73
2021/12/12 13:15:46;;;;;;;40.38;21.65;;;10.30;99.90;;;;;;5091094;28;20051;-73
2021/12/12 13:18:33;;;;;;;37.03;19.08;;;11.60;99.90;;;;;;5100503;28;20557;-73
2021/12/12 13:21:21;;;;;;;40.60;18.80;;;11.50;99.90;;;;;;5099731;28;20039;-73
2021/12/12 13:24:02;;;;;;;44.22;23.17;;;10.60;99.90;;;;;;5098652;28;20044;-74
2021/12/12 13:26:55;;;;;;;39.63;17.23;;;11.40;99.90;;;;;;5098291;28;20054;-74
2021/12/12 13:29:39;;;;;;;35.97;15.80;;;9.80;99.90;;;;;;5097739;28;20054;-74
2021/12/12 13:32:17;;;;;;;33.13;14.88;;;10.30;99.90;;;;;;5082848;28;20411;-74